Terminal Aerodrome Forecast
Issued by NWS

Home | Current Version | Previous Version | Text Only | Print | Product List | Glossary Off
Versions: 1 2 3 4 5 6 7 8 9 10 11 12 13 14 15 16 17 18 19 20 21 22 23 24 25 26 27 28 29 30

981
FTUS45 KGGW 182320
TAFGDV
TAF
KGDV 182320Z 1900/1924 01011KT P6SM FEW060
     FM190300 04006KT P6SM SKC
     FM190900 04005KT 3SM BR SCT008
     FM191500 10007KT P6SM SCT015=

USA.gov is the U.S. government's official web portal to all federal, state and local government web resources and services.